createdAt,value
2023-04-18T00:00:01.266Z,88.58
2023-04-18T00:03:15.897Z,88.86
2023-04-18T00:06:22.276Z,88.89
2023-04-18T00:09:25.750Z,88.96
2023-04-18T00:12:29.346Z,88.79
2023-04-18T00:15:35.675Z,88.87
2023-04-18T00:18:40.098Z,88.76
2023-04-18T00:21:45.113Z,88.67
2023-04-18T00:24:49.217Z,88.67
2023-04-18T00:27:52.560Z,89.05
2023-04-18T00:30:56.101Z,88.82
2023-04-18T00:34:00.296Z,89.00
2023-04-18T00:37:05.168Z,89.30
2023-04-18T00:40:09.618Z,89.27
2023-04-18T00:43:16.329Z,89.47
2023-04-18T00:46:20.074Z,88.46
2023-04-18T00:49:25.465Z,88.72
2023-04-18T00:52:30.773Z,89.28
2023-04-18T00:55:35.338Z,89.18
2023-04-18T00:58:41.044Z,89.19
2023-04-18T01:01:45.349Z,88.90
2023-04-18T01:04:49.224Z,89.53
2023-04-18T01:07:58.778Z,89.44
2023-04-18T01:11:05.394Z,89.90
2023-04-18T01:14:09.899Z,89.06
2023-04-18T01:17:13.576Z,89.71
2023-04-18T01:20:17.395Z,89.56
2023-04-18T01:23:22.646Z,89.64
2023-04-18T01:26:27.868Z,88.90
2023-04-18T01:29:32.388Z,89.63
2023-04-18T01:32:35.888Z,89.36
2023-04-18T01:35:39.360Z,89.21
2023-04-18T01:38:42.887Z,89.11
2023-04-18T01:41:48.005Z,88.85
2023-04-18T01:44:53.744Z,89.21
2023-04-18T01:47:57.193Z,89.62
2023-04-18T01:51:00.752Z,89.67
2023-04-18T01:54:04.200Z,89.48
2023-04-18T01:57:09.215Z,89.07
2023-04-18T02:00:13.772Z,89.00
2023-04-18T02:03:20.299Z,89.18
2023-04-18T02:06:23.960Z,89.11
2023-04-18T02:09:27.463Z,88.72
2023-04-18T02:12:34.580Z,88.89
2023-04-18T02:15:38.103Z,88.64
2023-04-18T02:18:44.732Z,89.11
2023-04-18T02:21:50.388Z,89.24
2023-04-18T02:24:53.877Z,89.10
2023-04-18T02:27:59.562Z,88.57
2023-04-18T02:31:02.913Z,88.73
2023-04-18T02:34:06.719Z,89.39
2023-04-18T02:37:10.183Z,89.26
2023-04-18T02:40:16.224Z,89.23
2023-04-18T02:43:21.272Z,88.94
2023-04-18T02:46:24.900Z,89.24
2023-04-18T02:49:29.124Z,89.46
2023-04-18T02:52:33.843Z,89.42
2023-04-18T02:55:38.516Z,89.20
2023-04-18T02:58:43.709Z,89.25
2023-04-18T03:02:07.469Z,88.93
2023-04-18T03:05:13.936Z,89.08
2023-04-18T03:08:18.955Z,89.27
2023-04-18T03:11:22.986Z,89.09
2023-04-18T03:14:28.178Z,89.53
2023-04-18T03:17:33.235Z,89.45
2023-04-18T03:20:37.816Z,88.90
2023-04-18T03:23:43.432Z,89.02
2023-04-18T03:26:47.945Z,88.73
2023-04-18T03:29:54.917Z,88.76
2023-04-18T03:32:59.737Z,89.02
2023-04-18T03:36:03.791Z,89.26
2023-04-18T03:39:07.632Z,89.43
2023-04-18T03:42:11.507Z,89.31
2023-04-18T03:45:17.944Z,89.43
2023-04-18T03:48:23.392Z,89.79
2023-04-18T03:51:27.676Z,88.67
2023-04-18T03:54:31.144Z,89.06
2023-04-18T03:57:34.818Z,89.18
2023-04-18T04:00:42.274Z,89.05
2023-04-18T04:03:47.942Z,89.56
2023-04-18T04:06:52.795Z,89.35
2023-04-18T04:09:56.682Z,89.26
2023-04-18T04:13:00.225Z,89.31
2023-04-18T04:16:06.933Z,89.10
2023-04-18T04:19:10.598Z,89.23
2023-04-18T04:22:19.840Z,88.84
2023-04-18T04:25:25.149Z,88.86
2023-04-18T04:28:31.756Z,88.91
2023-04-18T04:31:41.663Z,88.50
2023-04-18T04:34:46.645Z,88.78
2023-04-18T04:37:50.802Z,88.87
2023-04-18T04:41:04.540Z,88.83
2023-04-18T04:44:08.157Z,88.81
2023-04-18T04:47:12.994Z,89.22
2023-04-18T04:50:17.012Z,89.28
2023-04-18T04:53:20.461Z,88.88
2023-04-18T04:56:24.954Z,89.57
2023-04-18T04:59:28.731Z,88.51
2023-04-18T05:02:33.611Z,89.11
2023-04-18T05:05:37.298Z,89.20
2023-04-18T05:08:40.718Z,89.11
2023-04-18T05:11:44.013Z,88.92
2023-04-18T05:14:47.442Z,89.48
2023-04-18T05:17:52.246Z,89.35
2023-04-18T05:20:56.067Z,89.31
2023-04-18T05:23:59.396Z,88.98
2023-04-18T05:27:03.036Z,89.22
2023-04-18T05:30:07.695Z,88.53
2023-04-18T05:33:12.596Z,88.46
2023-04-18T05:36:16.375Z,89.26
2023-04-18T05:39:19.731Z,88.52
2023-04-18T05:42:23.266Z,88.50
2023-04-18T05:45:26.569Z,88.95
2023-04-18T05:48:31.361Z,88.33
2023-04-18T05:51:34.848Z,88.09
2023-04-18T05:54:38.282Z,87.89
2023-04-18T05:57:41.728Z,88.44
2023-04-18T06:00:45.186Z,87.81
2023-04-18T06:03:50.083Z,87.88
2023-04-18T06:06:53.869Z,88.49
2023-04-18T06:09:57.303Z,88.39
2023-04-18T06:13:00.670Z,87.54
2023-04-18T06:16:04.480Z,87.91
2023-04-18T06:19:10.256Z,87.31
2023-04-18T06:22:13.647Z,87.52
2023-04-18T06:25:17.084Z,87.28
2023-04-18T06:28:20.402Z,87.18
2023-04-18T06:31:23.726Z,87.99
2023-04-18T06:34:28.600Z,88.02
2023-04-18T06:37:32.087Z,87.73
2023-04-18T06:40:35.566Z,88.14
2023-04-18T06:43:39.987Z,87.83
2023-04-18T06:46:46.389Z,87.11
2023-04-18T06:49:51.171Z,87.13
2023-04-18T06:52:54.728Z,86.91
2023-04-18T06:55:58.387Z,86.24
2023-04-18T06:59:01.746Z,86.09
2023-04-18T07:02:05.205Z,86.12
2023-04-18T07:05:10.958Z,85.76
2023-04-18T07:08:14.510Z,85.70
2023-04-18T07:11:18.718Z,85.43
2023-04-18T07:14:24.456Z,85.90
2023-04-18T07:17:28.614Z,85.87
2023-04-18T07:20:33.447Z,85.69
2023-04-18T07:23:37.715Z,85.79
2023-04-18T07:26:41.370Z,85.25
2023-04-18T07:29:44.776Z,85.37
2023-04-18T07:32:48.855Z,85.17
2023-04-18T07:35:53.781Z,85.41
2023-04-18T07:38:57.127Z,85.03
2023-04-18T07:42:00.544Z,84.33
2023-04-18T07:45:04.237Z,84.03
2023-04-18T07:48:08.036Z,84.04
2023-04-18T07:51:13.262Z,83.94
2023-04-18T07:54:16.852Z,83.08
2023-04-18T07:57:20.612Z,82.01
2023-04-18T08:00:24.400Z,81.34
2023-04-18T08:03:29.908Z,81.99
2023-04-18T08:06:35.945Z,81.54
2023-04-18T08:09:39.476Z,80.12
2023-04-18T08:12:43.345Z,79.68
2023-04-18T08:15:47.593Z,79.86
2023-04-18T08:18:51.266Z,79.57
2023-04-18T08:21:56.130Z,79.50
2023-04-18T08:25:05.026Z,79.30
2023-04-18T08:28:09.747Z,78.48
2023-04-18T08:31:14.474Z,79.65
2023-04-18T08:34:18.097Z,78.90
2023-04-18T08:37:23.218Z,78.77
2023-04-18T08:40:26.870Z,79.17
2023-04-18T08:43:31.421Z,78.21
2023-04-18T08:46:35.906Z,77.90
2023-04-18T08:49:40.041Z,77.35
2023-04-18T08:52:49.436Z,77.07
2023-04-18T08:55:55.328Z,76.98
2023-04-18T08:59:00.410Z,76.65
2023-04-18T09:02:05.560Z,75.70
2023-04-18T09:05:14.494Z,75.37
2023-04-18T09:08:25.650Z,76.00
2023-04-18T09:11:31.816Z,74.92
2023-04-18T09:14:37.422Z,75.97
2023-04-18T09:17:43.654Z,72.80
2023-04-18T09:20:48.999Z,72.06
2023-04-18T09:24:17.670Z,73.59
2023-04-18T09:27:23.191Z,72.76
2023-04-18T09:30:47.695Z,73.37
2023-04-18T09:33:54.350Z,73.62
2023-04-18T09:37:09.275Z,73.07
2023-04-18T09:40:20.409Z,72.32
2023-04-18T09:43:24.149Z,72.27
2023-04-18T09:46:28.855Z,70.78
2023-04-18T09:49:32.495Z,71.17
2023-04-18T09:52:40.323Z,71.28
2023-04-18T09:55:46.563Z,71.73
2023-04-18T09:59:00.115Z,70.60
2023-04-18T10:02:08.243Z,70.54
2023-04-18T10:05:14.532Z,70.14
2023-04-18T10:08:20.012Z,69.54
2023-04-18T10:11:26.361Z,70.43
2023-04-18T10:14:34.868Z,69.67
2023-04-18T10:18:02.588Z,69.14
2023-04-18T10:21:10.981Z,68.77
2023-04-18T10:24:53.599Z,68.77
2023-04-18T10:28:02.385Z,68.04
2023-04-18T10:31:07.644Z,68.03
2023-04-18T10:34:18.260Z,68.44
2023-04-18T10:37:22.100Z,68.68
2023-04-18T10:40:34.495Z,68.02
2023-04-18T10:44:14.762Z,69.55
2023-04-18T10:47:27.875Z,69.23
2023-04-18T10:50:31.724Z,69.92
2023-04-18T10:53:35.370Z,69.88
2023-04-18T10:56:39.677Z,69.59
2023-04-18T10:59:49.326Z,70.11
2023-04-18T11:02:56.200Z,68.14
2023-04-18T11:06:03.286Z,66.79
2023-04-18T11:09:11.418Z,65.46
2023-04-18T11:12:14.877Z,65.50
2023-04-18T11:15:22.610Z,64.53
2023-04-18T11:18:26.074Z,67.62
2023-04-18T11:21:33.011Z,68.43
2023-04-18T11:24:36.823Z,65.88
2023-04-18T11:27:43.094Z,63.77
2023-04-18T11:30:48.505Z,65.85
2023-04-18T11:33:52.060Z,66.10
2023-04-18T11:36:55.494Z,65.90
2023-04-18T11:39:59.314Z,66.45
2023-04-18T11:43:03.682Z,67.45
2023-04-18T11:46:08.603Z,65.21
2023-04-18T11:49:26.900Z,65.31
2023-04-18T11:52:31.403Z,64.88
2023-04-18T11:55:34.907Z,64.59
2023-04-18T11:58:38.718Z,63.77
2023-04-18T12:01:43.944Z,63.13
2023-04-18T12:04:56.393Z,64.53
2023-04-18T12:08:08.355Z,64.53
2023-04-18T12:11:13.921Z,64.26
2023-04-18T12:14:22.010Z,59.12
2023-04-18T12:17:30.961Z,59.40
2023-04-18T12:20:39.479Z,61.73
2023-04-18T12:23:46.582Z,63.09
2023-04-18T12:26:50.918Z,62.60
2023-04-18T12:29:57.419Z,62.39
2023-04-18T12:33:04.248Z,62.78
2023-04-18T12:36:10.133Z,61.77
2023-04-18T12:39:13.728Z,62.06
2023-04-18T12:42:17.251Z,63.48
2023-04-18T12:45:22.652Z,61.61
2023-04-18T12:48:27.646Z,60.78
2023-04-18T12:51:37.932Z,63.20
2023-04-18T12:54:41.514Z,60.90
2023-04-18T12:57:45.519Z,60.54
2023-04-18T13:00:49.153Z,60.35
2023-04-18T13:04:08.214Z,62.37
2023-04-18T13:07:16.261Z,62.08
2023-04-18T13:10:25.824Z,62.38
2023-04-18T13:13:29.580Z,61.34
2023-04-18T13:16:33.254Z,62.67
2023-04-18T13:19:38.179Z,62.44
2023-04-18T13:22:43.129Z,63.53
2023-04-18T13:25:46.897Z,63.43
2023-04-18T13:28:50.337Z,64.46
2023-04-18T13:31:54.103Z,63.35
2023-04-18T13:34:59.318Z,61.77
2023-04-18T13:38:03.607Z,60.67
2023-04-18T13:41:12.838Z,61.08
2023-04-18T13:44:22.484Z,60.57
2023-04-18T13:47:29.986Z,63.46
2023-04-18T13:50:35.194Z,62.69
2023-04-18T13:53:38.921Z,63.13
2023-04-18T13:56:45.242Z,63.11
2023-04-18T13:59:48.791Z,62.55
2023-04-18T14:02:52.714Z,63.91
2023-04-18T14:06:01.167Z,62.23
2023-04-18T14:09:07.015Z,63.51
2023-04-18T14:12:10.790Z,65.46
2023-04-18T14:15:20.235Z,66.77
2023-04-18T14:18:27.105Z,68.90
2023-04-18T14:21:32.444Z,69.91
2023-04-18T14:24:36.500Z,70.90
2023-04-18T14:27:40.437Z,69.80
2023-04-18T14:30:45.299Z,69.81
2023-04-18T14:33:49.003Z,70.42
2023-04-18T14:36:54.009Z,70.41
2023-04-18T14:39:57.647Z,70.78
2023-04-18T14:43:01.192Z,69.05
2023-04-18T14:46:05.695Z,68.65
2023-04-18T14:49:09.377Z,68.79
2023-04-18T14:52:15.684Z,69.14
2023-04-18T14:55:21.531Z,68.84
2023-04-18T14:58:25.370Z,66.87
2023-04-18T15:01:31.957Z,65.95
2023-04-18T15:04:35.807Z,61.98
2023-04-18T15:07:42.975Z,62.94
2023-04-18T15:10:47.632Z,62.15
2023-04-18T15:13:51.382Z,63.05
2023-04-18T15:16:57.251Z,62.06
2023-04-18T15:20:00.909Z,62.97
2023-04-18T15:23:05.862Z,62.51
2023-04-18T15:26:14.389Z,62.17
2023-04-18T15:29:18.052Z,62.79
2023-04-18T15:32:23.404Z,63.32
2023-04-18T15:35:27.219Z,64.13
2023-04-18T15:38:33.129Z,63.37
2023-04-18T15:41:38.201Z,61.72
2023-04-18T15:44:41.635Z,62.04
2023-04-18T15:47:45.361Z,61.42
2023-04-18T15:50:52.679Z,61.70
2023-04-18T15:53:59.229Z,62.42
2023-04-18T15:57:04.626Z,61.99
2023-04-18T16:00:14.120Z,62.76
2023-04-18T16:03:18.324Z,62.39
2023-04-18T16:06:23.604Z,62.88
2023-04-18T16:09:28.431Z,62.87
2023-04-18T16:12:32.294Z,63.27
2023-04-18T16:15:41.549Z,65.07
2023-04-18T16:18:47.264Z,64.05
2023-04-18T16:21:51.452Z,64.77
2023-04-18T16:24:59.140Z,64.75
2023-04-18T16:28:04.237Z,64.08
2023-04-18T16:31:08.827Z,65.19
2023-04-18T16:34:15.612Z,65.85
2023-04-18T16:37:19.186Z,64.14
2023-04-18T16:40:24.435Z,63.95
2023-04-18T16:43:30.377Z,65.25
2023-04-18T16:46:33.763Z,66.20
2023-04-18T16:49:37.667Z,65.54
2023-04-18T16:52:41.642Z,66.24
2023-04-18T16:55:50.410Z,67.09
2023-04-18T16:58:53.839Z,66.16
2023-04-18T17:01:57.459Z,66.92
2023-04-18T17:05:03.898Z,67.68
2023-04-18T17:08:09.243Z,67.55
2023-04-18T17:11:14.253Z,68.00
2023-04-18T17:14:18.406Z,68.78
2023-04-18T17:17:23.672Z,68.00
2023-04-18T17:20:28.609Z,68.70
2023-04-18T17:23:33.131Z,69.30
2023-04-18T17:26:40.128Z,68.37
2023-04-18T17:29:43.856Z,68.64
2023-04-18T17:32:47.591Z,68.00
2023-04-18T17:35:51.334Z,68.29
2023-04-18T17:38:54.895Z,68.86
2023-04-18T17:42:00.300Z,68.32
2023-04-18T17:45:04.972Z,68.46
2023-04-18T17:48:10.137Z,68.46
2023-04-18T17:51:16.543Z,68.77
2023-04-18T17:54:20.468Z,69.17
2023-04-18T17:57:26.205Z,69.23
2023-04-18T18:00:31.920Z,70.00
2023-04-18T18:03:35.673Z,70.46
2023-04-18T18:06:40.022Z,70.95
2023-04-18T18:09:43.547Z,71.24
2023-04-18T18:12:48.806Z,71.58
2023-04-18T18:15:52.975Z,71.77
2023-04-18T18:19:04.171Z,71.63
2023-04-18T18:22:08.609Z,71.96
2023-04-18T18:25:12.628Z,72.18
2023-04-18T18:28:17.708Z,72.11
2023-04-18T18:31:24.897Z,72.76
2023-04-18T18:34:32.121Z,73.19
2023-04-18T18:37:36.916Z,73.87
2023-04-18T18:40:40.500Z,74.32
2023-04-18T18:43:45.758Z,75.01
2023-04-18T18:46:49.213Z,76.21
2023-04-18T18:49:52.723Z,78.51
2023-04-18T18:52:56.261Z,79.76
2023-04-18T18:55:59.995Z,79.34
2023-04-18T18:59:05.185Z,78.21
2023-04-18T19:02:09.240Z,79.16
2023-04-18T19:05:20.328Z,79.06
2023-04-18T19:08:26.904Z,79.34
2023-04-18T19:11:30.381Z,79.52
2023-04-18T19:14:35.187Z,79.76
2023-04-18T19:17:39.145Z,80.21
2023-04-18T19:20:42.786Z,79.22
2023-04-18T19:23:46.651Z,79.80
2023-04-18T19:26:50.142Z,79.85
2023-04-18T19:29:54.974Z,79.57
2023-04-18T19:32:58.461Z,79.83
2023-04-18T19:36:02.345Z,80.27
2023-04-18T19:39:09.759Z,79.97
2023-04-18T19:42:13.152Z,79.95
2023-04-18T19:45:18.306Z,79.39
2023-04-18T19:48:21.647Z,79.68
2023-04-18T19:51:25.072Z,79.78
2023-04-18T19:54:28.864Z,79.47
2023-04-18T19:57:32.343Z,78.97
2023-04-18T20:00:40.128Z,79.36
2023-04-18T20:03:49.403Z,79.00
2023-04-18T20:06:56.227Z,78.91
2023-04-18T20:10:00.617Z,78.65
2023-04-18T20:13:05.358Z,78.87
2023-04-18T20:16:11.301Z,78.74
2023-04-18T20:19:15.087Z,78.59
2023-04-18T20:22:20.125Z,78.40
2023-04-18T20:25:23.589Z,78.32
2023-04-18T20:28:27.813Z,78.27
2023-04-18T20:31:35.133Z,78.60
2023-04-18T20:34:38.921Z,78.34
2023-04-18T20:37:42.383Z,78.50
2023-04-18T20:40:46.875Z,78.44
2023-04-18T20:43:50.808Z,77.82
2023-04-18T20:46:55.652Z,78.44
2023-04-18T20:50:00.375Z,78.34
2023-04-18T20:53:04.712Z,78.41
2023-04-18T20:56:08.793Z,78.58
2023-04-18T20:59:12.227Z,78.72
2023-04-18T21:02:17.368Z,79.01
2023-04-18T21:05:20.990Z,78.93
2023-04-18T21:08:24.573Z,78.77
2023-04-18T21:11:29.375Z,78.86
2023-04-18T21:14:33.223Z,78.56
2023-04-18T21:17:41.293Z,78.82
2023-04-18T21:20:45.026Z,79.52
2023-04-18T21:23:48.897Z,79.06
2023-04-18T21:26:52.572Z,79.29
2023-04-18T21:29:59.287Z,79.41
2023-04-18T21:33:06.965Z,79.12
2023-04-18T21:36:10.786Z,79.19
2023-04-18T21:39:14.284Z,78.99
2023-04-18T21:42:17.710Z,79.02
2023-04-18T21:45:21.207Z,78.98
2023-04-18T21:48:26.466Z,79.01
2023-04-18T21:51:30.002Z,79.07
2023-04-18T21:54:38.132Z,79.45
2023-04-18T21:57:42.398Z,78.78
2023-04-18T22:00:46.397Z,78.89
2023-04-18T22:03:51.514Z,79.24
2023-04-18T22:06:56.966Z,79.07
2023-04-18T22:10:00.517Z,78.62
2023-04-18T22:13:05.452Z,78.72
2023-04-18T22:16:12.078Z,78.73
2023-04-18T22:19:21.721Z,78.72
2023-04-18T22:22:25.916Z,78.55
2023-04-18T22:25:29.620Z,78.94
2023-04-18T22:28:34.047Z,78.79
2023-04-18T22:31:37.562Z,78.84
2023-04-18T22:34:42.630Z,78.76
2023-04-18T22:37:46.122Z,78.58
2023-04-18T22:40:49.539Z,78.66
2023-04-18T22:43:53.609Z,78.50
2023-04-18T22:46:57.295Z,78.27
2023-04-18T22:50:02.304Z,78.38
2023-04-18T22:53:06.208Z,78.40
2023-04-18T22:56:09.755Z,78.00
2023-04-18T22:59:13.152Z,78.15
2023-04-18T23:02:16.860Z,77.65
2023-04-18T23:05:22.057Z,77.97
2023-04-18T23:08:25.542Z,77.94
2023-04-18T23:11:29.031Z,77.78
2023-04-18T23:14:34.608Z,77.96
2023-04-18T23:17:38.332Z,78.10
2023-04-18T23:20:44.254Z,78.08
2023-04-18T23:23:50.100Z,78.12
2023-04-18T23:26:57.365Z,78.53
2023-04-18T23:30:01.676Z,78.55
2023-04-18T23:33:06.066Z,78.38
2023-04-18T23:36:12.769Z,78.86
2023-04-18T23:39:18.621Z,78.86
2023-04-18T23:42:22.080Z,78.36
2023-04-18T23:45:25.597Z,78.72
2023-04-18T23:48:29.259Z,78.19
2023-04-18T23:51:34.296Z,78.22
2023-04-18T23:54:38.122Z,78.28
2023-04-18T23:57:41.830Z,78.26
